Time;durP1;ratioP1;P1;durP2;ratioP2;P2;SDS_P1;SDS_P2;PMS_P1;PMS_P2;Temp;Humidity;BMP_temperature;BMP_pressure;BME280_temperature;BME280_humidity;BME280_pressure;Samples;Min_cycle;Max_cycle;Signal;HPM_P1;HPM_P2
2023/07/11 00:01:47;;;;;;;7.70;7.00;;;27.90;53.00;;;;;;4994627;28;20201;-69
2023/07/11 00:04:12;;;;;;;6.73;6.07;;;27.80;53.00;;;;;;4995941;28;20255;-69
2023/07/11 00:06:38;;;;;;;6.60;5.93;;;27.80;53.00;;;;;;4995807;28;20189;-69
2023/07/11 00:09:05;;;;;;;7.13;6.47;;;27.80;52.90;;;;;;4994780;28;20200;-69
2023/07/11 00:11:31;;;;;;;6.93;6.30;;;27.90;53.00;;;;;;4995672;28;20204;-69
2023/07/11 00:13:59;;;;;;;7.93;7.27;;;27.80;52.90;;;;;;4995719;28;20446;-69
2023/07/11 00:16:25;;;;;;;7.23;6.53;;;27.80;52.90;;;;;;4995760;28;20169;-69
2023/07/11 00:18:51;;;;;;;6.73;6.13;;;27.80;52.90;;;;;;4995586;28;20468;-69
2023/07/11 00:21:16;;;;;;;7.43;6.73;;;27.90;53.00;;;;;;4995571;28;20852;-69
2023/07/11 00:23:42;;;;;;;6.70;6.20;;;27.80;52.90;;;;;;4994285;28;20185;-69
2023/07/11 00:26:07;;;;;;;6.90;6.20;;;27.80;52.90;;;;;;4995471;28;20261;-68
2023/07/11 00:28:33;;;;;;;7.03;6.40;;;27.90;53.00;;;;;;4995478;28;20200;-68
2023/07/11 00:31:00;;;;;;;6.93;6.33;;;27.80;52.90;;;;;;4994207;28;20243;-68
2023/07/11 00:33:25;;;;;;;7.23;6.53;;;27.80;52.90;;;;;;4995640;28;20575;-68
2023/07/11 00:35:53;;;;;;;7.50;6.90;;;27.80;52.90;;;;;;4995384;28;20420;-68
2023/07/11 00:38:20;;;;;;;6.70;6.10;;;27.80;52.90;;;;;;4995286;28;20574;-68
2023/07/11 00:40:47;;;;;;;7.10;6.47;;;27.80;52.90;;;;;;4995511;28;20404;-68
2023/07/11 00:43:18;;;;;;;7.53;6.27;;;27.90;52.90;;;;;;4995492;28;20416;-69
2023/07/11 00:46:09;;;;;;;7.07;6.47;;;27.80;52.90;;;;;;4995192;28;20396;-68
2023/07/11 00:48:38;;;;;;;7.57;6.87;;;27.80;52.90;;;;;;4995082;28;21005;-68
2023/07/11 00:51:07;;;;;;;7.00;6.40;;;27.90;52.90;;;;;;4995109;28;20420;-68
2023/07/11 00:53:33;;;;;;;7.70;6.60;;;27.80;52.90;;;;;;4995253;28;20498;-68
2023/07/11 00:56:04;;;;;;;7.10;6.50;;;27.80;52.90;;;;;;4995081;28;20404;-68
2023/07/11 00:58:31;;;;;;;6.73;6.13;;;27.80;52.90;;;;;;4993950;28;21018;-68
2023/07/11 01:00:58;;;;;;;7.40;6.70;;;27.80;52.90;;;;;;4994833;28;20432;-68
2023/07/11 01:03:24;;;;;;;7.10;6.50;;;27.80;52.90;;;;;;4994897;28;20416;-68
2023/07/11 01:05:50;;;;;;;7.37;6.60;;;27.80;52.90;;;;;;4994787;28;20932;-69
2023/07/11 01:08:15;;;;;;;7.40;6.70;;;27.90;52.90;;;;;;4994752;28;20192;-69
2023/07/11 01:10:41;;;;;;;6.90;6.30;;;27.80;52.90;;;;;;4994705;28;20264;-68
2023/07/11 01:13:09;;;;;;;7.50;6.80;;;27.80;52.90;;;;;;4994511;28;20290;-68
2023/07/11 01:15:35;;;;;;;6.83;6.23;;;27.80;52.90;;;;;;4994607;28;20180;-69
2023/07/11 01:18:00;;;;;;;7.70;6.90;;;27.80;52.90;;;;;;4994501;28;20420;-69
2023/07/11 01:20:26;;;;;;;8.43;6.20;;;27.80;52.90;;;;;;4994550;28;20858;-69
2023/07/11 01:22:52;;;;;;;8.07;7.27;;;27.80;52.90;;;;;;4994774;28;20177;-70
2023/07/11 01:25:18;;;;;;;7.17;6.47;;;27.80;52.90;;;;;;4994707;28;20591;-69
2023/07/11 01:27:47;;;;;;;7.40;6.70;;;27.80;52.90;;;;;;4994332;28;20189;-68
2023/07/11 01:30:15;;;;;;;8.30;7.50;;;27.80;52.90;;;;;;4994379;28;20466;-68
2023/07/11 01:32:41;;;;;;;7.70;6.97;;;27.80;52.80;;;;;;4994230;28;20456;-69
2023/07/11 01:35:07;;;;;;;7.80;7.10;;;27.80;52.80;;;;;;4993051;28;20416;-69
2023/07/11 01:37:33;;;;;;;7.13;6.43;;;27.80;52.90;;;;;;4994202;28;20275;-69
2023/07/11 01:39:58;;;;;;;7.40;6.50;;;27.80;52.90;;;;;;4994196;28;20815;-69
2023/07/11 01:42:25;;;;;;;7.33;6.70;;;27.80;52.90;;;;;;4994159;28;20185;-68
2023/07/11 01:44:51;;;;;;;7.47;6.77;;;27.80;52.90;;;;;;4994103;28;20607;-68
2023/07/11 01:47:17;;;;;;;7.33;6.67;;;27.80;52.90;;;;;;4993948;28;20431;-68
2023/07/11 01:49:42;;;;;;;6.47;5.97;;;27.80;52.90;;;;;;4993951;28;20177;-68
2023/07/11 01:52:14;;;;;;;7.00;6.40;;;27.80;52.90;;;;;;4994174;28;20201;-69
2023/07/11 01:54:40;;;;;;;7.53;6.33;;;27.80;52.80;;;;;;4993959;28;20818;-68
2023/07/11 01:57:07;;;;;;;7.73;6.70;;;27.80;52.90;;;;;;4993986;28;20468;-68
2023/07/11 01:59:34;;;;;;;8.20;6.37;;;27.80;52.80;;;;;;4993926;28;20702;-69
2023/07/11 02:01:59;;;;;;;7.43;6.83;;;27.80;52.80;;;;;;4993658;28;20436;-67
2023/07/11 02:04:26;;;;;;;6.80;6.20;;;27.80;52.80;;;;;;4993666;28;20431;-69
2023/07/11 02:06:52;;;;;;;6.53;5.90;;;27.80;52.80;;;;;;4993636;28;20205;-68
2023/07/11 02:09:19;;;;;;;8.43;7.73;;;27.80;52.80;;;;;;4993424;28;20408;-69
2023/07/11 02:11:45;;;;;;;6.63;6.03;;;27.80;52.80;;;;;;4992205;28;20939;-69
2023/07/11 02:14:13;;;;;;;6.83;5.83;;;27.80;52.80;;;;;;4993521;28;20544;-68
2023/07/11 02:16:39;;;;;;;8.10;7.30;;;27.80;52.80;;;;;;4993303;28;20264;-69
2023/07/11 02:19:04;;;;;;;6.80;6.10;;;27.80;52.80;;;;;;4993404;28;20495;-68
2023/07/11 02:21:30;;;;;;;7.10;6.50;;;27.80;52.80;;;;;;4993393;28;20642;-68
2023/07/11 02:23:55;;;;;;;6.57;5.70;;;27.80;52.80;;;;;;4993281;28;20173;-68
2023/07/11 02:26:22;;;;;;;6.73;6.13;;;27.80;52.80;;;;;;4993308;28;20180;-69
2023/07/11 02:28:48;;;;;;;7.00;6.30;;;27.80;52.70;;;;;;4993194;28;20689;-69
2023/07/11 02:31:14;;;;;;;6.90;6.20;;;27.90;52.80;;;;;;4993183;28;20401;-69
2023/07/11 02:33:40;;;;;;;7.10;6.50;;;27.80;52.70;;;;;;4993151;28;20201;-69
2023/07/11 02:36:06;;;;;;;7.60;6.90;;;27.80;52.70;;;;;;4993230;28;20184;-68
2023/07/11 02:38:31;;;;;;;7.27;6.67;;;27.80;52.70;;;;;;4993006;28;20428;-67
2023/07/11 02:40:57;;;;;;;6.43;5.83;;;27.80;52.80;;;;;;4993039;28;20543;-68
2023/07/11 02:43:22;;;;;;;8.60;6.03;;;27.80;52.70;;;;;;4991862;28;20244;-68
2023/07/11 02:45:48;;;;;;;7.00;6.30;;;27.80;52.70;;;;;;4993050;28;20184;-68
2023/07/11 02:48:14;;;;;;;7.53;6.83;;;27.80;52.70;;;;;;4991882;28;20559;-68
2023/07/11 02:50:39;;;;;;;6.73;6.13;;;27.80;52.70;;;;;;4991635;28;20272;-67
2023/07/11 02:53:05;;;;;;;6.80;6.20;;;27.80;52.70;;;;;;4991800;28;20200;-68
2023/07/11 02:55:31;;;;;;;6.80;6.10;;;27.80;52.70;;;;;;4992821;28;20177;-68
2023/07/11 02:57:57;;;;;;;7.90;6.87;;;27.80;52.70;;;;;;4993031;28;20201;-68
2023/07/11 03:00:22;;;;;;;6.80;6.20;;;27.80;52.80;;;;;;4992676;28;20454;-69
2023/07/11 03:02:48;;;;;;;7.37;6.77;;;27.80;52.70;;;;;;4993036;28;20173;-68
2023/07/11 03:05:13;;;;;;;7.50;6.80;;;27.80;52.80;;;;;;4991472;28;20204;-68
2023/07/11 03:07:40;;;;;;;7.63;6.93;;;27.80;52.80;;;;;;4992686;28;20188;-67
2023/07/11 03:10:06;;;;;;;7.80;7.10;;;27.80;52.80;;;;;;4992714;28;20180;-68
2023/07/11 03:12:32;;;;;;;7.50;6.80;;;27.80;52.80;;;;;;4991309;28;20459;-68
2023/07/11 03:14:57;;;;;;;6.90;6.27;;;27.80;52.80;;;;;;4992658;28;20418;-69
2023/07/11 03:17:23;;;;;;;6.43;5.93;;;27.80;52.80;;;;;;4992564;28;20184;-68
2023/07/11 03:19:48;;;;;;;7.20;6.50;;;27.80;52.70;;;;;;4993807;28;20196;-69
2023/07/11 03:22:14;;;;;;;7.57;6.77;;;27.80;52.70;;;;;;4999104;28;20180;-69
2023/07/11 03:24:39;;;;;;;7.43;6.73;;;27.80;52.70;;;;;;4999049;28;20717;-69
2023/07/11 03:27:05;;;;;;;7.63;6.83;;;27.80;52.70;;;;;;4998961;28;20192;-69
2023/07/11 03:29:31;;;;;;;7.57;6.87;;;27.80;52.70;;;;;;4999030;28;20204;-69
2023/07/11 03:31:56;;;;;;;7.30;6.70;;;27.80;52.80;;;;;;4998920;28;20197;-69
2023/07/11 03:34:23;;;;;;;6.53;5.97;;;27.80;52.70;;;;;;4999049;28;20196;-69
2023/07/11 03:36:49;;;;;;;8.07;7.33;;;27.80;52.70;;;;;;4998902;28;20196;-69
2023/07/11 03:39:14;;;;;;;7.70;7.00;;;27.80;52.70;;;;;;4997655;28;20446;-69
2023/07/11 03:41:40;;;;;;;7.67;6.50;;;27.80;52.70;;;;;;4997561;28;20176;-69
2023/07/11 03:44:05;;;;;;;7.23;6.50;;;27.80;52.70;;;;;;4998990;28;20173;-69
2023/07/11 03:46:31;;;;;;;8.40;6.83;;;27.80;52.70;;;;;;4998805;28;20176;-69
2023/07/11 03:49:00;;;;;;;7.17;6.57;;;27.80;52.60;;;;;;4998841;28;20196;-69
2023/07/11 03:51:26;;;;;;;6.63;6.03;;;27.80;52.60;;;;;;4999090;28;20216;-69
2023/07/11 03:53:52;;;;;;;7.30;6.63;;;27.80;52.60;;;;;;4998746;28;20470;-69
2023/07/11 03:56:17;;;;;;;5.83;5.37;;;27.80;52.60;;;;;;4998761;28;20408;-68
2023/07/11 03:58:43;;;;;;;6.93;6.33;;;27.80;52.60;;;;;;4998657;28;20247;-69
2023/07/11 04:01:08;;;;;;;8.17;7.37;;;27.80;52.70;;;;;;4998636;28;20561;-69
2023/07/11 04:03:34;;;;;;;6.47;5.93;;;27.80;52.60;;;;;;4998955;28;20227;-68
2023/07/11 04:05:59;;;;;;;7.10;6.40;;;27.80;52.60;;;;;;4997422;28;21096;-68
2023/07/11 04:08:25;;;;;;;6.50;5.97;;;27.80;52.60;;;;;;4998597;28;20196;-68
2023/07/11 04:10:50;;;;;;;6.80;6.20;;;27.80;52.60;;;;;;4998891;28;20177;-68
2023/07/11 04:13:16;;;;;;;6.20;5.70;;;27.80;52.70;;;;;;4998581;28;20569;-68
2023/07/11 04:15:42;;;;;;;6.30;5.70;;;27.80;52.60;;;;;;4998606;28;20556;-68
2023/07/11 04:18:07;;;;;;;6.57;5.97;;;27.80;52.60;;;;;;4998397;28;20197;-68
2023/07/11 04:20:36;;;;;;;7.10;6.50;;;27.80;52.60;;;;;;4998331;28;20404;-68
2023/07/11 04:23:01;;;;;;;7.27;6.67;;;27.80;52.60;;;;;;4998514;28;20205;-68
2023/07/11 04:25:27;;;;;;;6.80;6.20;;;27.80;52.60;;;;;;4998493;28;20412;-69
2023/07/11 04:27:53;;;;;;;7.50;6.80;;;27.70;52.60;;;;;;4998442;28;20570;-68
2023/07/11 04:30:18;;;;;;;6.60;5.90;;;27.80;52.60;;;;;;4998471;28;20176;-67
2023/07/11 04:32:44;;;;;;;6.90;6.30;;;27.80;52.60;;;;;;4996423;28;20709;-68
2023/07/11 04:35:14;;;;;;;7.83;7.13;;;27.70;52.60;;;;;;4995722;28;20653;-69
2023/07/11 04:37:39;;;;;;;7.77;7.07;;;27.80;52.60;;;;;;4995276;28;20211;-68
2023/07/11 04:40:06;;;;;;;6.67;6.07;;;27.80;52.70;;;;;;4995356;28;20412;-67
2023/07/11 04:42:32;;;;;;;6.90;5.90;;;27.80;52.60;;;;;;4995588;28;20300;-68
2023/07/11 04:44:57;;;;;;;6.73;6.13;;;27.80;52.60;;;;;;4995248;28;20921;-67
2023/07/11 04:47:23;;;;;;;7.70;7.00;;;27.80;52.60;;;;;;4995080;28;20200;-69
2023/07/11 04:49:49;;;;;;;6.73;6.13;;;27.80;52.60;;;;;;4995240;28;20188;-67
2023/07/11 04:52:14;;;;;;;6.80;6.20;;;27.80;52.60;;;;;;4994546;28;20245;-68
2023/07/11 04:54:40;;;;;;;6.73;6.17;;;27.80;52.60;;;;;;4993395;28;20173;-67
2023/07/11 04:57:05;;;;;;;7.37;6.57;;;27.80;52.60;;;;;;4994954;28;20189;-69
2023/07/11 04:59:31;;;;;;;8.70;6.27;;;27.80;52.60;;;;;;4995085;28;20204;-68
2023/07/11 05:01:56;;;;;;;6.67;6.07;;;27.80;53.20;;;;;;4995026;28;20224;-69
2023/07/11 05:04:22;;;;;;;6.80;6.13;;;27.80;52.60;;;;;;4994933;28;20224;-69
2023/07/11 05:06:48;;;;;;;14.90;8.80;;;27.80;52.60;;;;;;4994808;28;20192;-68
2023/07/11 05:09:15;;;;;;;7.00;6.40;;;27.80;52.70;;;;;;4994838;28;20173;-68
2023/07/11 05:11:41;;;;;;;6.80;6.20;;;27.80;52.70;;;;;;4994642;28;20459;-67
2023/07/11 05:14:06;;;;;;;7.00;6.40;;;27.80;53.20;;;;;;4994630;28;20416;-68
2023/07/11 05:16:32;;;;;;;7.50;6.70;;;27.80;52.70;;;;;;4994568;28;20404;-67
2023/07/11 05:18:58;;;;;;;6.60;6.10;;;27.80;52.70;;;;;;4993444;28;20184;-68
2023/07/11 05:21:25;;;;;;;6.90;6.20;;;27.80;52.70;;;;;;4994600;28;20169;-68
2023/07/11 05:23:50;;;;;;;7.20;6.03;;;27.80;52.60;;;;;;4994537;28;20435;-70
2023/07/11 05:26:17;;;;;;;7.90;7.20;;;27.80;52.60;;;;;;4994463;28;20405;-69
2023/07/11 05:28:46;;;;;;;6.83;6.17;;;27.80;52.60;;;;;;4994602;28;20212;-68
2023/07/11 05:31:12;;;;;;;6.70;6.10;;;27.80;52.60;;;;;;4994384;28;20416;-67
2023/07/11 05:33:38;;;;;;;7.10;6.40;;;27.80;52.60;;;;;;4994466;28;20987;-68
2023/07/11 05:39:14;;;;;;;6.70;6.10;;;27.80;52.60;;;;;;4972580;28;20173;-67
2023/07/11 05:41:44;;;;;;;5.93;5.33;;;27.80;52.70;;;;;;4972645;28;20457;-67
2023/07/11 05:44:11;;;;;;;7.93;6.40;;;27.80;52.70;;;;;;4971929;28;20521;-67
2023/07/11 05:46:38;;;;;;;7.20;6.60;;;27.80;52.70;;;;;;4972256;28;20416;-68
2023/07/11 05:49:04;;;;;;;6.40;5.80;;;27.80;52.70;;;;;;4972363;28;20933;-67
2023/07/11 05:51:30;;;;;;;7.33;6.40;;;27.80;52.70;;;;;;4972348;28;20746;-68
2023/07/11 05:53:57;;;;;;;7.20;6.50;;;27.80;52.70;;;;;;4972175;28;20460;-68
2023/07/11 05:56:23;;;;;;;7.10;6.50;;;27.80;52.70;;;;;;4972190;28;20413;-69
2023/07/11 05:58:51;;;;;;;6.23;5.73;;;27.80;52.70;;;;;;4972140;28;20444;-67
2023/07/11 06:01:20;;;;;;;7.30;6.70;;;27.80;52.70;;;;;;4972084;28;20503;-67
2023/07/11 06:03:48;;;;;;;8.70;6.10;;;27.80;52.70;;;;;;4972050;28;20424;-69
2023/07/11 06:06:14;;;;;;;5.80;5.30;;;27.80;52.70;;;;;;4972034;28;20417;-68
2023/07/11 06:08:40;;;;;;;7.07;6.47;;;27.80;52.80;;;;;;4971925;28;20528;-68
2023/07/11 06:11:07;;;;;;;6.33;5.73;;;27.80;52.70;;;;;;4993273;28;20420;-68
2023/07/11 06:13:36;;;;;;;6.80;6.10;;;27.80;52.70;;;;;;4993508;28;20456;-68
2023/07/11 06:16:14;;;;;;;7.30;6.60;;;27.80;52.70;;;;;;4993441;28;20412;-68
2023/07/11 06:18:39;;;;;;;6.87;6.27;;;27.80;52.80;;;;;;4992231;28;20470;-67
2023/07/11 06:21:07;;;;;;;7.13;6.47;;;27.80;52.80;;;;;;4993395;28;20516;-69
2023/07/11 06:23:33;;;;;;;7.30;6.70;;;27.80;52.80;;;;;;4993487;28;20252;-68
2023/07/11 06:25:59;;;;;;;7.17;6.20;;;27.80;52.80;;;;;;4993322;28;20838;-68
2023/07/11 06:28:25;;;;;;;6.47;5.87;;;27.80;52.80;;;;;;4993289;28;20196;-68
2023/07/11 06:30:54;;;;;;;6.90;6.20;;;27.80;52.80;;;;;;4993541;28;20573;-69
2023/07/11 06:33:19;;;;;;;8.13;7.43;;;27.80;52.80;;;;;;4993166;28;20456;-68
2023/07/11 06:35:49;;;;;;;7.00;6.30;;;27.80;52.80;;;;;;4993281;28;20423;-68
2023/07/11 06:38:16;;;;;;;6.53;5.77;;;27.80;52.80;;;;;;4993096;28;20199;-68
2023/07/11 06:40:47;;;;;;;7.43;6.80;;;27.80;52.80;;;;;;4993131;28;20408;-68
2023/07/11 06:43:13;;;;;;;6.73;6.13;;;27.80;52.80;;;;;;4993165;28;20893;-67
2023/07/11 06:45:39;;;;;;;6.00;5.50;;;27.80;52.80;;;;;;4992963;28;20416;-67
2023/07/11 06:48:04;;;;;;;6.53;5.93;;;27.80;53.30;;;;;;4993011;28;20197;-68
2023/07/11 06:50:30;;;;;;;6.23;5.63;;;27.80;52.80;;;;;;4993034;28;20196;-68
2023/07/11 06:52:55;;;;;;;7.33;6.70;;;27.80;52.80;;;;;;4992860;28;20235;-69
2023/07/11 06:55:21;;;;;;;6.70;5.93;;;27.80;52.80;;;;;;4992133;28;20200;-69
2023/07/11 06:57:47;;;;;;;6.90;6.20;;;27.80;52.80;;;;;;4992782;28;20193;-69
2023/07/11 07:00:13;;;;;;;6.30;5.80;;;27.80;52.90;;;;;;4992693;28;20184;-68
2023/07/11 07:02:38;;;;;;;6.83;6.20;;;27.80;52.90;;;;;;4992927;28;20658;-69
2023/07/11 07:05:04;;;;;;;7.60;6.80;;;27.80;52.90;;;;;;4992763;28;20444;-67
2023/07/11 07:07:30;;;;;;;6.70;6.10;;;27.80;52.90;;;;;;4991478;28;20204;-69
2023/07/11 07:09:57;;;;;;;7.10;6.50;;;27.80;52.90;;;;;;4992671;28;20423;-69
2023/07/11 07:12:24;;;;;;;7.20;6.50;;;27.80;52.90;;;;;;4992690;28;20197;-69
2023/07/11 07:14:49;;;;;;;6.97;6.37;;;27.80;52.90;;;;;;4992653;28;20631;-67
2023/07/11 07:17:15;;;;;;;7.23;6.57;;;27.80;52.90;;;;;;4992482;28;20443;-69
2023/07/11 07:19:41;;;;;;;6.77;6.20;;;27.80;52.90;;;;;;4992579;28;20537;-68
2023/07/11 07:22:07;;;;;;;6.90;6.33;;;27.80;52.90;;;;;;4992936;28;20181;-68
2023/07/11 07:24:32;;;;;;;7.83;7.13;;;27.80;53.00;;;;;;4991319;28;20787;-68
2023/07/11 07:26:58;;;;;;;7.03;6.33;;;27.80;52.90;;;;;;4991171;28;20215;-68
2023/07/11 07:29:24;;;;;;;7.13;6.53;;;27.80;52.90;;;;;;4992509;28;20177;-68
2023/07/11 07:31:49;;;;;;;6.83;6.23;;;27.80;52.90;;;;;;4992297;28;20178;-68
2023/07/11 07:34:15;;;;;;;6.67;6.07;;;27.80;52.90;;;;;;4992540;28;20917;-68
2023/07/11 07:36:41;;;;;;;7.57;6.87;;;27.80;52.90;;;;;;4992370;28;20688;-68
2023/07/11 07:39:06;;;;;;;8.33;7.53;;;27.80;52.90;;;;;;4992443;28;20661;-68
2023/07/11 07:41:32;;;;;;;6.93;6.33;;;27.80;52.90;;;;;;4992442;28;20580;-68
2023/07/11 07:43:58;;;;;;;7.10;6.40;;;27.80;52.90;;;;;;4992387;28;20184;-69
2023/07/11 07:46:23;;;;;;;7.37;6.77;;;27.80;52.90;;;;;;4992645;28;20526;-68
2023/07/11 07:48:49;;;;;;;6.83;6.30;;;27.80;52.90;;;;;;4992297;28;20284;-69
2023/07/11 07:51:17;;;;;;;6.83;6.23;;;27.80;53.00;;;;;;4992301;28;20181;-68
2023/07/11 07:53:44;;;;;;;6.53;5.93;;;27.80;53.00;;;;;;4992500;28;20316;-68
2023/07/11 07:56:18;;;;;;;7.67;6.87;;;27.80;52.90;;;;;;4991095;28;20641;-69
2023/07/11 07:58:44;;;;;;;6.60;6.00;;;27.80;52.90;;;;;;4992457;28;20428;-69
2023/07/11 08:01:11;;;;;;;7.00;6.40;;;27.80;53.00;;;;;;4992211;28;20467;-68
2023/07/11 08:03:38;;;;;;;7.00;6.30;;;27.80;53.00;;;;;;4992351;28;20443;-69
2023/07/11 08:06:05;;;;;;;6.70;6.20;;;27.80;52.90;;;;;;4992770;28;20470;-68
2023/07/11 08:08:31;;;;;;;6.83;6.00;;;27.80;52.90;;;;;;4995847;28;20438;-69
2023/07/11 08:11:04;;;;;;;6.70;5.90;;;27.80;52.90;;;;;;4995830;28;20503;-69
2023/07/11 08:13:30;;;;;;;7.60;6.90;;;27.80;52.90;;;;;;4995803;28;20239;-68
2023/07/11 08:15:56;;;;;;;6.67;6.17;;;27.90;53.00;;;;;;4994491;28;20945;-68
2023/07/11 08:18:22;;;;;;;6.20;5.60;;;27.80;52.90;;;;;;4995640;28;20479;-68
2023/07/11 08:20:48;;;;;;;6.73;6.13;;;27.80;52.90;;;;;;4995771;28;20220;-70
2023/07/11 08:23:14;;;;;;;6.90;6.30;;;27.80;52.90;;;;;;4995678;28;20689;-69
2023/07/11 08:25:41;;;;;;;6.63;6.13;;;27.80;53.00;;;;;;4995671;28;20450;-69
2023/07/11 08:28:07;;;;;;;6.43;5.83;;;27.90;53.00;;;;;;4995510;28;20196;-69
2023/07/11 08:30:41;;;;;;;8.30;7.47;;;27.80;52.90;;;;;;4995585;28;20408;-69
2023/07/11 08:33:06;;;;;;;6.57;6.07;;;27.80;52.90;;;;;;4995432;28;20447;-69
2023/07/11 08:35:32;;;;;;;6.53;5.93;;;27.80;52.90;;;;;;4995448;28;20901;-69
2023/07/11 08:37:58;;;;;;;6.83;6.23;;;27.90;53.00;;;;;;4995326;28;20714;-69
2023/07/11 08:40:29;;;;;;;6.60;6.00;;;27.80;52.90;;;;;;4995349;28;20173;-69
2023/07/11 08:42:55;;;;;;;6.17;5.67;;;27.80;52.90;;;;;;4994101;28;20177;-69
2023/07/11 08:45:40;;;;;;;6.10;5.50;;;27.80;52.90;;;;;;4995254;28;20466;-69
2023/07/11 08:48:16;;;;;;;6.40;5.83;;;27.80;52.90;;;;;;4995181;28;20432;-68
2023/07/11 08:50:56;;;;;;;6.53;6.03;;;27.80;53.50;;;;;;4995844;28;20406;-69
2023/07/11 08:53:32;;;;;;;6.60;5.97;;;27.80;52.90;;;;;;4995759;28;20444;-70
2023/07/11 08:56:08;;;;;;;6.87;6.27;;;27.80;52.90;;;;;;4996165;28;20396;-68
2023/07/11 08:58:38;;;;;;;6.97;6.27;;;27.90;53.00;;;;;;4995204;28;20438;-68
2023/07/11 09:01:11;;;;;;;6.70;6.10;;;27.80;53.00;;;;;;4994913;28;20515;-68
2023/07/11 09:03:46;;;;;;;6.67;6.00;;;27.90;53.00;;;;;;4995054;28;20389;-69
2023/07/11 09:06:16;;;;;;;6.07;5.53;;;27.80;53.00;;;;;;4993501;28;20411;-69
2023/07/11 09:08:44;;;;;;;6.50;6.00;;;27.80;53.00;;;;;;4994794;28;20522;-69
2023/07/11 09:11:19;;;;;;;6.80;6.20;;;27.90;53.10;;;;;;4994938;28;20416;-69
2023/07/11 09:14:01;;;;;;;7.23;6.53;;;27.90;53.00;;;;;;4994714;28;20956;-69
2023/07/11 09:16:36;;;;;;;6.83;6.27;;;27.90;53.10;;;;;;4994743;28;20500;-68
2023/07/11 09:19:10;;;;;;;6.77;6.20;;;27.90;53.10;;;;;;4993862;28;20457;-69
2023/07/11 09:22:07;;;;;;;6.37;5.87;;;27.80;53.00;;;;;;4994633;28;20457;-69
2023/07/11 09:24:54;;;;;;;7.13;6.47;;;27.90;53.10;;;;;;4994617;28;20452;-69
2023/07/11 09:27:32;;;;;;;7.10;6.50;;;27.80;53.00;;;;;;4994482;28;20936;-69
2023/07/11 09:30:00;;;;;;;5.87;5.37;;;27.90;53.10;;;;;;4994774;28;20755;-68
2023/07/11 09:32:32;;;;;;;5.70;5.20;;;27.80;53.00;;;;;;4994359;28;20448;-69
2023/07/11 09:35:06;;;;;;;6.53;5.93;;;27.80;53.00;;;;;;4994393;28;20400;-68
2023/07/11 09:37:42;;;;;;;6.70;6.10;;;27.90;53.10;;;;;;4994234;28;20424;-69
2023/07/11 09:40:14;;;;;;;5.87;5.37;;;27.90;53.10;;;;;;4994198;28;20396;-69
2023/07/11 09:42:50;;;;;;;7.07;6.40;;;27.90;53.10;;;;;;4994274;28;20459;-69
2023/07/11 09:45:22;;;;;;;6.30;5.80;;;27.90;53.10;;;;;;4994197;28;20507;-69
2023/07/11 09:48:03;;;;;;;6.63;6.03;;;27.90;53.00;;;;;;4994076;28;20800;-70
2023/07/11 09:50:32;;;;;;;6.27;5.67;;;27.90;53.10;;;;;;4994179;28;20403;-69
2023/07/11 09:53:00;;;;;;;5.97;5.47;;;27.90;53.10;;;;;;4993939;28;20468;-69
2023/07/11 09:55:34;;;;;;;6.17;5.67;;;27.90;53.10;;;;;;4994220;28;20408;-69
2023/07/11 09:58:03;;;;;;;6.20;5.70;;;27.90;53.10;;;;;;4993872;28;20432;-69
2023/07/11 10:00:29;;;;;;;5.90;5.40;;;27.90;53.00;;;;;;4993735;28;20441;-68
2023/07/11 10:02:59;;;;;;;5.90;5.43;;;27.90;53.00;;;;;;4993879;28;20396;-69
2023/07/11 10:05:26;;;;;;;6.30;5.70;;;27.90;53.10;;;;;;4993851;28;20634;-68
2023/07/11 10:08:02;;;;;;;6.60;6.00;;;27.90;53.00;;;;;;4993878;28;20440;-69
2023/07/11 10:10:28;;;;;;;7.27;6.23;;;27.90;53.10;;;;;;4994019;28;20400;-68
2023/07/11 10:12:54;;;;;;;5.73;5.23;;;27.90;53.10;;;;;;4993587;28;20841;-68
2023/07/11 10:15:24;;;;;;;6.40;5.80;;;27.90;53.10;;;;;;4993643;28;20404;-69
2023/07/11 10:17:55;;;;;;;5.93;5.43;;;27.90;53.10;;;;;;4993470;28;20211;-68
2023/07/11 10:20:22;;;;;;;6.03;5.43;;;27.90;53.60;;;;;;4993515;28;20396;-67
2023/07/11 10:22:50;;;;;;;6.90;6.30;;;27.90;53.00;;;;;;4993455;28;20405;-67
2023/07/11 10:25:21;;;;;;;5.97;5.47;;;27.90;53.60;;;;;;4993467;28;20412;-68
2023/07/11 10:27:56;;;;;;;6.40;5.90;;;27.90;53.00;;;;;;4993280;28;20460;-68
2023/07/11 10:30:26;;;;;;;6.40;5.90;;;27.90;53.10;;;;;;4993216;28;20407;-67
2023/07/11 10:33:00;;;;;;;6.63;6.10;;;27.90;53.10;;;;;;4992268;28;20513;-68
2023/07/11 10:35:26;;;;;;;6.30;5.80;;;27.90;53.10;;;;;;4992009;28;20412;-68
2023/07/11 10:37:54;;;;;;;5.80;5.30;;;27.90;53.10;;;;;;4993133;28;20431;-69
2023/07/11 10:40:37;;;;;;;5.40;4.97;;;27.90;53.10;;;;;;4993244;28;20669;-68
2023/07/11 10:43:25;;;;;;;6.37;5.77;;;27.90;53.10;;;;;;4993138;28;20400;-68
2023/07/11 10:45:57;;;;;;;6.30;5.70;;;28.00;53.10;;;;;;4992985;28;20909;-69
2023/07/11 10:48:34;;;;;;;5.50;5.07;;;27.90;53.10;;;;;;4992960;28;20443;-68
2023/07/11 10:51:17;;;;;;;7.03;6.53;;;27.90;53.10;;;;;;4993215;28;20871;-68
2023/07/11 10:54:08;;;;;;;5.67;5.17;;;27.90;53.10;;;;;;4992909;28;21012;-68
2023/07/11 10:56:38;;;;;;;6.27;5.77;;;28.00;53.20;;;;;;4992856;28;20385;-68
2023/07/11 10:59:04;;;;;;;6.03;5.53;;;27.90;53.10;;;;;;4992901;28;20560;-68
2023/07/11 11:01:58;;;;;;;6.40;5.90;;;27.90;53.10;;;;;;4992649;28;20524;-68
2023/07/11 11:04:26;;;;;;;5.77;5.33;;;28.00;53.20;;;;;;4992826;28;20530;-68
2023/07/11 11:07:06;;;;;;;6.97;5.50;;;27.90;53.10;;;;;;4992670;28;20432;-70
2023/07/11 11:10:11;;;;;;;6.80;6.20;;;28.00;53.20;;;;;;4992757;28;20388;-69
2023/07/11 11:12:40;;;;;;;6.10;5.50;;;27.90;53.10;;;;;;4992655;28;20443;-68
2023/07/11 11:15:20;;;;;;;5.87;5.40;;;27.90;53.10;;;;;;4992665;28;20408;-68
2023/07/11 11:18:08;;;;;;;6.00;5.50;;;27.90;53.10;;;;;;4992487;28;20423;-68
2023/07/11 11:20:58;;;;;;;6.30;5.70;;;27.90;53.10;;;;;;4992616;28;20412;-68
2023/07/11 11:23:35;;;;;;;5.20;4.80;;;27.90;53.10;;;;;;4992540;28;20397;-68
2023/07/11 11:26:26;;;;;;;5.80;5.30;;;27.90;53.20;;;;;;4992545;28;20517;-66
2023/07/11 11:29:17;;;;;;;5.53;5.13;;;27.90;53.10;;;;;;4992691;28;20434;-68
2023/07/11 11:31:53;;;;;;;5.80;5.20;;;27.90;53.10;;;;;;4992525;28;20488;-69
2023/07/11 11:34:46;;;;;;;5.90;5.40;;;27.90;53.20;;;;;;4992535;28;20397;-68
2023/07/11 11:37:22;;;;;;;6.23;5.63;;;27.90;53.20;;;;;;4992364;28;20791;-69
2023/07/11 11:40:09;;;;;;;5.40;4.97;;;27.90;53.20;;;;;;4991904;28;20416;-68
2023/07/11 11:42:37;;;;;;;6.30;5.80;;;27.90;53.20;;;;;;4993608;28;21001;-68
2023/07/11 11:45:07;;;;;;;5.77;5.27;;;27.90;53.20;;;;;;4994575;28;20404;-68
2023/07/11 11:47:35;;;;;;;5.70;5.20;;;27.90;53.20;;;;;;4994428;28;20434;-68
2023/07/11 11:50:02;;;;;;;5.90;5.40;;;27.90;53.20;;;;;;4995852;28;20448;-68
2023/07/11 11:52:33;;;;;;;5.80;5.30;;;27.90;53.20;;;;;;4996452;28;20594;-68
2023/07/11 11:54:59;;;;;;;6.40;5.90;;;27.90;53.20;;;;;;4996162;28;20416;-69
2023/07/11 11:57:26;;;;;;;5.60;5.10;;;28.00;53.20;;;;;;4996018;28;20439;-68
2023/07/11 11:59:52;;;;;;;5.87;5.33;;;28.00;53.20;;;;;;4995913;28;20471;-68
2023/07/11 12:02:31;;;;;;;6.47;5.87;;;27.90;53.20;;;;;;4996127;28;20768;-68
2023/07/11 12:05:00;;;;;;;5.27;4.77;;;28.00;53.20;;;;;;4996089;28;20551;-68
2023/07/11 12:07:44;;;;;;;5.20;4.80;;;28.00;53.20;;;;;;4995867;28;20436;-67
2023/07/11 12:10:16;;;;;;;5.47;5.00;;;28.00;53.20;;;;;;4996009;28;20400;-68
2023/07/11 12:12:41;;;;;;;5.40;4.90;;;28.00;53.20;;;;;;4995900;28;20483;-66
2023/07/11 12:15:13;;;;;;;5.40;4.90;;;28.00;53.20;;;;;;4995764;28;20412;-68
2023/07/11 12:17:38;;;;;;;5.73;5.23;;;28.00;53.20;;;;;;4995749;28;20185;-68
2023/07/11 12:20:07;;;;;;;5.47;4.97;;;28.00;53.20;;;;;;4995761;28;20431;-67
2023/07/11 12:22:38;;;;;;;5.60;5.10;;;28.00;53.20;;;;;;4995765;28;20176;-68
2023/07/11 12:25:07;;;;;;;5.57;5.17;;;28.00;53.20;;;;;;4995766;28;20412;-68
2023/07/11 12:27:33;;;;;;;5.70;4.53;;;28.00;53.20;;;;;;4995787;28;20436;-67
2023/07/11 12:30:00;;;;;;;6.27;5.37;;;28.00;53.20;;;;;;4995840;28;20435;-68
2023/07/11 12:32:31;;;;;;;5.27;4.87;;;28.00;53.20;;;;;;4995509;28;20196;-68
2023/07/11 12:35:06;;;;;;;5.70;5.20;;;28.00;53.20;;;;;;4995446;28;20413;-68
2023/07/11 12:37:59;;;;;;;5.07;4.67;;;28.00;53.20;;;;;;4995596;28;20798;-67
2023/07/11 12:40:52;;;;;;;5.93;5.30;;;28.00;53.20;;;;;;4995366;28;20400;-68
2023/07/11 12:43:31;;;;;;;5.00;4.60;;;28.00;53.20;;;;;;4994316;28;20412;-68
2023/07/11 12:46:01;;;;;;;5.23;4.77;;;28.00;53.20;;;;;;4995279;28;20400;-68
2023/07/11 12:48:31;;;;;;;5.23;4.83;;;28.00;53.20;;;;;;4995116;28;20477;-68
2023/07/11 12:51:04;;;;;;;5.30;4.80;;;28.00;53.20;;;;;;4995391;28;20937;-68
2023/07/11 12:53:34;;;;;;;4.73;4.33;;;28.00;53.30;;;;;;4992469;28;20464;-68
2023/07/11 12:56:00;;;;;;;5.90;5.40;;;28.00;53.20;;;;;;4995094;28;20424;-68
2023/07/11 12:58:28;;;;;;;5.67;5.27;;;28.00;53.20;;;;;;4994995;28;21012;-69
2023/07/11 13:00:56;;;;;;;4.50;4.10;;;28.00;53.20;;;;;;4994813;28;20479;-67